sensor_id;sensor_type;location;lat;lon;timestamp;temperature;humidity
21823;DHT22;11074;48.596;9.238;2022-08-19T00:01:33;21.20;99.90
21823;DHT22;11074;48.596;9.238;2022-08-19T00:04:04;21.20;99.90
21823;DHT22;11074;48.596;9.238;2022-08-19T00:06:33;21.20;99.90
21823;DHT22;11074;48.596;9.238;2022-08-19T00:09:01;21.20;99.90
21823;DHT22;11074;48.596;9.238;2022-08-19T00:11:28;21.20;99.90
21823;DHT22;11074;48.596;9.238;2022-08-19T00:13:55;21.20;99.90
21823;DHT22;11074;48.596;9.238;2022-08-19T00:16:22;21.20;99.90
21823;DHT22;11074;48.596;9.238;2022-08-19T00:18:49;21.10;99.90
21823;DHT22;11074;48.596;9.238;2022-08-19T00:21:15;21.10;99.90
21823;DHT22;11074;48.596;9.238;2022-08-19T00:23:42;21.10;99.90
21823;DHT22;11074;48.596;9.238;2022-08-19T00:26:09;21.10;99.90
21823;DHT22;11074;48.596;9.238;2022-08-19T00:28:36;21.10;99.90
21823;DHT22;11074;48.596;9.238;2022-08-19T00:31:04;21.00;99.90
21823;DHT22;11074;48.596;9.238;2022-08-19T00:33:31;21.00;99.90
21823;DHT22;11074;48.596;9.238;2022-08-19T00:36:03;21.00;99.90
21823;DHT22;11074;48.596;9.238;2022-08-19T00:38:31;20.90;99.90
21823;DHT22;11074;48.596;9.238;2022-08-19T00:40:58;20.90;99.90
21823;DHT22;11074;48.596;9.238;2022-08-19T00:43:26;20.80;99.90
21823;DHT22;11074;48.596;9.238;2022-08-19T00:45:53;20.80;99.90
21823;DHT22;11074;48.596;9.238;2022-08-19T00:48:20;20.80;99.90
21823;DHT22;11074;48.596;9.238;2022-08-19T00:50:49;20.80;99.90
21823;DHT22;11074;48.596;9.238;2022-08-19T00:53:20;20.80;99.90
21823;DHT22;11074;48.596;9.238;2022-08-19T00:55:50;20.80;99.90
21823;DHT22;11074;48.596;9.238;2022-08-19T00:58:24;20.80;99.90
21823;DHT22;11074;48.596;9.238;2022-08-19T01:00:54;20.80;99.90
21823;DHT22;11074;48.596;9.238;2022-08-19T01:03:21;20.80;99.90
21823;DHT22;11074;48.596;9.238;2022-08-19T01:05:49;20.70;99.90
21823;DHT22;11074;48.596;9.238;2022-08-19T01:08:17;20.60;99.90
21823;DHT22;11074;48.596;9.238;2022-08-19T01:10:50;20.60;99.90
21823;DHT22;11074;48.596;9.238;2022-08-19T01:13:23;20.60;99.90
21823;DHT22;11074;48.596;9.238;2022-08-19T01:16:04;20.60;99.90
21823;DHT22;11074;48.596;9.238;2022-08-19T01:18:38;20.50;99.90
21823;DHT22;11074;48.596;9.238;2022-08-19T01:21:12;20.40;99.90
21823;DHT22;11074;48.596;9.238;2022-08-19T01:24:01;20.40;99.90
21823;DHT22;11074;48.596;9.238;2022-08-19T01:26:27;20.30;99.90
21823;DHT22;11074;48.596;9.238;2022-08-19T01:28:57;20.30;99.90
21823;DHT22;11074;48.596;9.238;2022-08-19T01:31:28;20.10;99.90
21823;DHT22;11074;48.596;9.238;2022-08-19T01:33:57;20.20;99.90
21823;DHT22;11074;48.596;9.238;2022-08-19T01:36:28;20.20;99.90
21823;DHT22;11074;48.596;9.238;2022-08-19T01:38:56;20.10;99.90
21823;DHT22;11074;48.596;9.238;2022-08-19T01:41:24;20.00;99.90
21823;DHT22;11074;48.596;9.238;2022-08-19T01:43:51;20.10;99.90
21823;DHT22;11074;48.596;9.238;2022-08-19T01:46:18;20.00;99.90
21823;DHT22;11074;48.596;9.238;2022-08-19T01:48:46;20.00;99.90
21823;DHT22;11074;48.596;9.238;2022-08-19T01:51:13;20.00;99.90
21823;DHT22;11074;48.596;9.238;2022-08-19T01:53:40;19.90;99.90
21823;DHT22;11074;48.596;9.238;2022-08-19T01:56:07;19.80;99.90
21823;DHT22;11074;48.596;9.238;2022-08-19T01:58:38;19.70;99.90
21823;DHT22;11074;48.596;9.238;2022-08-19T02:01:08;19.60;99.90
21823;DHT22;11074;48.596;9.238;2022-08-19T02:03:34;19.60;99.90
21823;DHT22;11074;48.596;9.238;2022-08-19T02:06:02;19.60;99.90
21823;DHT22;11074;48.596;9.238;2022-08-19T02:08:29;19.60;99.90
21823;DHT22;11074;48.596;9.238;2022-08-19T02:10:56;19.50;99.90
21823;DHT22;11074;48.596;9.238;2022-08-19T02:13:23;19.40;99.90
21823;DHT22;11074;48.596;9.238;2022-08-19T02:15:50;19.50;99.90
21823;DHT22;11074;48.596;9.238;2022-08-19T02:18:16;19.60;99.90
21823;DHT22;11074;48.596;9.238;2022-08-19T02:20:43;19.60;99.90
21823;DHT22;11074;48.596;9.238;2022-08-19T02:23:11;19.50;99.90
21823;DHT22;11074;48.596;9.238;2022-08-19T02:25:37;19.60;99.90
21823;DHT22;11074;48.596;9.238;2022-08-19T02:28:05;19.50;99.90
21823;DHT22;11074;48.596;9.238;2022-08-19T02:30:30;19.60;99.90
21823;DHT22;11074;48.596;9.238;2022-08-19T02:32:56;19.50;99.90
21823;DHT22;11074;48.596;9.238;2022-08-19T02:35:23;19.50;99.90
21823;DHT22;11074;48.596;9.238;2022-08-19T02:37:49;19.30;99.90
21823;DHT22;11074;48.596;9.238;2022-08-19T02:40:34;19.30;99.90
21823;DHT22;11074;48.596;9.238;2022-08-19T02:43:01;19.40;99.90
21823;DHT22;11074;48.596;9.238;2022-08-19T02:45:38;19.50;99.90
21823;DHT22;11074;48.596;9.238;2022-08-19T02:48:07;19.40;99.90
21823;DHT22;11074;48.596;9.238;2022-08-19T02:50:37;19.50;99.90
21823;DHT22;11074;48.596;9.238;2022-08-19T02:53:04;19.50;99.90
21823;DHT22;11074;48.596;9.238;2022-08-19T02:55:29;19.50;99.90
21823;DHT22;11074;48.596;9.238;2022-08-19T02:57:55;19.60;99.90
21823;DHT22;11074;48.596;9.238;2022-08-19T03:00:22;19.60;99.90
21823;DHT22;11074;48.596;9.238;2022-08-19T03:02:49;19.60;99.90
21823;DHT22;11074;48.596;9.238;2022-08-19T03:05:15;19.60;99.90
21823;DHT22;11074;48.596;9.238;2022-08-19T03:07:41;19.70;99.90
21823;DHT22;11074;48.596;9.238;2022-08-19T03:10:07;19.70;99.90
21823;DHT22;11074;48.596;9.238;2022-08-19T03:12:37;19.60;99.90
21823;DHT22;11074;48.596;9.238;2022-08-19T03:15:08;19.60;99.90
21823;DHT22;11074;48.596;9.238;2022-08-19T03:17:34;19.50;99.90
21823;DHT22;11074;48.596;9.238;2022-08-19T03:20:00;19.50;99.90
21823;DHT22;11074;48.596;9.238;2022-08-19T03:22:26;19.60;99.90
21823;DHT22;11074;48.596;9.238;2022-08-19T03:24:52;19.60;99.90
21823;DHT22;11074;48.596;9.238;2022-08-19T03:27:19;19.60;99.90
21823;DHT22;11074;48.596;9.238;2022-08-19T03:29:44;19.50;99.90
21823;DHT22;11074;48.596;9.238;2022-08-19T03:32:11;19.60;99.90
21823;DHT22;11074;48.596;9.238;2022-08-19T03:34:38;19.60;99.90
21823;DHT22;11074;48.596;9.238;2022-08-19T03:37:07;19.50;99.90
21823;DHT22;11074;48.596;9.238;2022-08-19T03:39:36;19.50;99.90
21823;DHT22;11074;48.596;9.238;2022-08-19T03:42:03;19.50;99.90
21823;DHT22;11074;48.596;9.238;2022-08-19T03:44:31;19.50;99.90
21823;DHT22;11074;48.596;9.238;2022-08-19T03:47:03;19.50;99.90
21823;DHT22;11074;48.596;9.238;2022-08-19T03:49:31;19.50;99.90
21823;DHT22;11074;48.596;9.238;2022-08-19T03:51:58;19.50;99.90
21823;DHT22;11074;48.596;9.238;2022-08-19T03:54:26;19.30;99.90
21823;DHT22;11074;48.596;9.238;2022-08-19T03:56:54;19.20;99.90
21823;DHT22;11074;48.596;9.238;2022-08-19T03:59:27;19.20;99.90
21823;DHT22;11074;48.596;9.238;2022-08-19T04:01:58;19.20;99.90
21823;DHT22;11074;48.596;9.238;2022-08-19T04:04:26;19.20;99.90
21823;DHT22;11074;48.596;9.238;2022-08-19T04:06:52;19.30;99.90
21823;DHT22;11074;48.596;9.238;2022-08-19T04:09:19;19.30;99.90
21823;DHT22;11074;48.596;9.238;2022-08-19T04:11:48;19.40;99.90
21823;DHT22;11074;48.596;9.238;2022-08-19T04:14:22;19.30;99.90
21823;DHT22;11074;48.596;9.238;2022-08-19T04:16:51;19.30;99.90
21823;DHT22;11074;48.596;9.238;2022-08-19T04:19:18;19.30;99.90
21823;DHT22;11074;48.596;9.238;2022-08-19T04:21:47;19.40;99.90
21823;DHT22;11074;48.596;9.238;2022-08-19T04:24:15;19.40;99.90
21823;DHT22;11074;48.596;9.238;2022-08-19T04:26:42;19.40;99.90
21823;DHT22;11074;48.596;9.238;2022-08-19T04:29:14;19.40;99.90
21823;DHT22;11074;48.596;9.238;2022-08-19T04:31:47;19.30;99.90
21823;DHT22;11074;48.596;9.238;2022-08-19T04:34:15;19.20;99.90
21823;DHT22;11074;48.596;9.238;2022-08-19T04:36:44;19.20;99.90
21823;DHT22;11074;48.596;9.238;2022-08-19T04:39:22;19.20;99.90
21823;DHT22;11074;48.596;9.238;2022-08-19T04:42:13;19.00;99.90
21823;DHT22;11074;48.596;9.238;2022-08-19T04:44:59;19.10;99.90
21823;DHT22;11074;48.596;9.238;2022-08-19T04:47:25;19.10;99.90
21823;DHT22;11074;48.596;9.238;2022-08-19T04:49:51;19.00;99.90
21823;DHT22;11074;48.596;9.238;2022-08-19T04:52:17;19.00;99.90
21823;DHT22;11074;48.596;9.238;2022-08-19T04:54:42;19.00;99.90
21823;DHT22;11074;48.596;9.238;2022-08-19T04:57:09;19.00;99.90
21823;DHT22;11074;48.596;9.238;2022-08-19T04:59:35;19.00;99.90
21823;DHT22;11074;48.596;9.238;2022-08-19T05:02:03;19.00;99.90
21823;DHT22;11074;48.596;9.238;2022-08-19T05:04:29;19.10;99.90
21823;DHT22;11074;48.596;9.238;2022-08-19T05:06:56;19.20;99.90
21823;DHT22;11074;48.596;9.238;2022-08-19T05:09:21;19.30;99.90
21823;DHT22;11074;48.596;9.238;2022-08-19T05:11:47;19.40;99.90
21823;DHT22;11074;48.596;9.238;2022-08-19T05:14:13;19.40;99.90
21823;DHT22;11074;48.596;9.238;2022-08-19T05:16:40;19.40;99.90
21823;DHT22;11074;48.596;9.238;2022-08-19T05:19:06;19.40;99.90
21823;DHT22;11074;48.596;9.238;2022-08-19T05:21:51;19.40;99.90
21823;DHT22;11074;48.596;9.238;2022-08-19T05:24:36;19.40;99.90
21823;DHT22;11074;48.596;9.238;2022-08-19T05:27:03;19.40;99.90
21823;DHT22;11074;48.596;9.238;2022-08-19T05:29:32;19.40;99.90
21823;DHT22;11074;48.596;9.238;2022-08-19T05:32:00;19.40;99.90
21823;DHT22;11074;48.596;9.238;2022-08-19T05:34:27;19.40;99.90
21823;DHT22;11074;48.596;9.238;2022-08-19T05:36:56;19.40;99.90
21823;DHT22;11074;48.596;9.238;2022-08-19T05:39:26;19.40;99.90
21823;DHT22;11074;48.596;9.238;2022-08-19T05:42:01;19.30;99.90
21823;DHT22;11074;48.596;9.238;2022-08-19T05:44:31;19.30;99.90
21823;DHT22;11074;48.596;9.238;2022-08-19T05:47:00;19.30;99.90
21823;DHT22;11074;48.596;9.238;2022-08-19T05:49:28;19.30;99.90
21823;DHT22;11074;48.596;9.238;2022-08-19T05:51:55;19.30;99.90
21823;DHT22;11074;48.596;9.238;2022-08-19T05:54:22;19.40;99.90
21823;DHT22;11074;48.596;9.238;2022-08-19T05:56:49;19.50;99.90
21823;DHT22;11074;48.596;9.238;2022-08-19T05:59:18;19.60;99.90
21823;DHT22;11074;48.596;9.238;2022-08-19T06:01:47;19.60;99.90
21823;DHT22;11074;48.596;9.238;2022-08-19T06:04:19;19.70;99.90
21823;DHT22;11074;48.596;9.238;2022-08-19T06:06:50;19.60;99.90
21823;DHT22;11074;48.596;9.238;2022-08-19T06:09:18;19.60;99.90
21823;DHT22;11074;48.596;9.238;2022-08-19T06:11:50;19.50;99.90
21823;DHT22;11074;48.596;9.238;2022-08-19T06:14:26;19.50;99.90
21823;DHT22;11074;48.596;9.238;2022-08-19T06:16:54;19.60;99.90
21823;DHT22;11074;48.596;9.238;2022-08-19T06:19:22;19.60;99.90
21823;DHT22;11074;48.596;9.238;2022-08-19T06:21:51;19.60;99.90
21823;DHT22;11074;48.596;9.238;2022-08-19T06:24:21;19.50;99.90
21823;DHT22;11074;48.596;9.238;2022-08-19T06:26:51;19.40;99.90
21823;DHT22;11074;48.596;9.238;2022-08-19T06:29:20;19.50;99.90
21823;DHT22;11074;48.596;9.238;2022-08-19T06:31:50;19.60;99.90
21823;DHT22;11074;48.596;9.238;2022-08-19T06:34:18;19.60;99.90
21823;DHT22;11074;48.596;9.238;2022-08-19T06:36:48;19.60;99.90
21823;DHT22;11074;48.596;9.238;2022-08-19T06:39:22;19.70;99.90
21823;DHT22;11074;48.596;9.238;2022-08-19T06:41:52;19.60;99.90
21823;DHT22;11074;48.596;9.238;2022-08-19T06:44:24;19.60;99.90
21823;DHT22;11074;48.596;9.238;2022-08-19T06:46:52;19.70;99.90
21823;DHT22;11074;48.596;9.238;2022-08-19T06:49:19;19.70;99.90
21823;DHT22;11074;48.596;9.238;2022-08-19T06:51:47;19.70;99.90
21823;DHT22;11074;48.596;9.238;2022-08-19T06:54:17;19.80;99.90
21823;DHT22;11074;48.596;9.238;2022-08-19T06:56:44;19.80;99.90
21823;DHT22;11074;48.596;9.238;2022-08-19T06:59:16;19.80;99.90
21823;DHT22;11074;48.596;9.238;2022-08-19T07:01:48;19.80;99.90
21823;DHT22;11074;48.596;9.238;2022-08-19T07:04:18;19.70;99.90
21823;DHT22;11074;48.596;9.238;2022-08-19T07:06:46;19.70;99.90
21823;DHT22;11074;48.596;9.238;2022-08-19T07:09:14;19.80;99.90
21823;DHT22;11074;48.596;9.238;2022-08-19T07:11:49;19.70;99.90
21823;DHT22;11074;48.596;9.238;2022-08-19T07:14:19;19.70;99.90
21823;DHT22;11074;48.596;9.238;2022-08-19T07:16:49;19.60;99.90
21823;DHT22;11074;48.596;9.238;2022-08-19T07:19:17;19.60;99.90
21823;DHT22;11074;48.596;9.238;2022-08-19T07:21:47;19.60;99.90
21823;DHT22;11074;48.596;9.238;2022-08-19T07:24:19;19.60;99.90
21823;DHT22;11074;48.596;9.238;2022-08-19T07:26:48;19.60;99.90
21823;DHT22;11074;48.596;9.238;2022-08-19T07:29:16;19.50;99.90
21823;DHT22;11074;48.596;9.238;2022-08-19T07:31:43;19.50;99.90
21823;DHT22;11074;48.596;9.238;2022-08-19T07:34:11;19.60;99.90
21823;DHT22;11074;48.596;9.238;2022-08-19T07:36:40;19.50;99.90
21823;DHT22;11074;48.596;9.238;2022-08-19T07:39:10;19.50;99.90
21823;DHT22;11074;48.596;9.238;2022-08-19T07:41:41;19.40;99.90
21823;DHT22;11074;48.596;9.238;2022-08-19T07:44:08;19.40;99.90
21823;DHT22;11074;48.596;9.238;2022-08-19T07:46:37;19.40;99.90
21823;DHT22;11074;48.596;9.238;2022-08-19T07:49:06;19.40;99.90
21823;DHT22;11074;48.596;9.238;2022-08-19T07:51:33;19.50;99.90
21823;DHT22;11074;48.596;9.238;2022-08-19T07:53:59;19.50;99.90
21823;DHT22;11074;48.596;9.238;2022-08-19T07:56:25;19.50;99.90
21823;DHT22;11074;48.596;9.238;2022-08-19T07:58:52;19.40;99.90
21823;DHT22;11074;48.596;9.238;2022-08-19T08:01:22;19.40;99.90
21823;DHT22;11074;48.596;9.238;2022-08-19T08:03:51;19.50;99.90
21823;DHT22;11074;48.596;9.238;2022-08-19T08:06:37;19.50;99.90
21823;DHT22;11074;48.596;9.238;2022-08-19T08:09:25;19.60;99.90
21823;DHT22;11074;48.596;9.238;2022-08-19T08:14:56;19.70;99.90
21823;DHT22;11074;48.596;9.238;2022-08-19T08:17:25;19.60;99.90
21823;DHT22;11074;48.596;9.238;2022-08-19T08:19:53;19.60;99.90
21823;DHT22;11074;48.596;9.238;2022-08-19T08:22:20;19.60;99.90
21823;DHT22;11074;48.596;9.238;2022-08-19T08:25:12;19.50;99.90
21823;DHT22;11074;48.596;9.238;2022-08-19T08:27:40;19.50;99.90
21823;DHT22;11074;48.596;9.238;2022-08-19T08:30:09;19.50;99.90
21823;DHT22;11074;48.596;9.238;2022-08-19T08:32:37;19.40;99.90
21823;DHT22;11074;48.596;9.238;2022-08-19T08:35:05;19.40;99.90
21823;DHT22;11074;48.596;9.238;2022-08-19T08:37:33;19.30;99.90
21823;DHT22;11074;48.596;9.238;2022-08-19T08:40:01;19.30;99.90
21823;DHT22;11074;48.596;9.238;2022-08-19T08:42:36;19.30;99.90
21823;DHT22;11074;48.596;9.238;2022-08-19T08:45:14;19.50;99.90
21823;DHT22;11074;48.596;9.238;2022-08-19T08:47:45;19.50;99.90
21823;DHT22;11074;48.596;9.238;2022-08-19T08:50:19;19.50;99.90
21823;DHT22;11074;48.596;9.238;2022-08-19T08:52:48;19.50;99.90
21823;DHT22;11074;48.596;9.238;2022-08-19T08:55:20;19.40;99.90
21823;DHT22;11074;48.596;9.238;2022-08-19T09:00:35;19.50;99.90
21823;DHT22;11074;48.596;9.238;2022-08-19T09:03:07;19.60;99.90
21823;DHT22;11074;48.596;9.238;2022-08-19T09:06:03;19.60;99.90
21823;DHT22;11074;48.596;9.238;2022-08-19T09:08:39;19.60;99.90
21823;DHT22;11074;48.596;9.238;2022-08-19T09:11:24;19.60;99.90
21823;DHT22;11074;48.596;9.238;2022-08-19T09:16:47;19.50;99.90
21823;DHT22;11074;48.596;9.238;2022-08-19T09:19:14;19.60;99.90
21823;DHT22;11074;48.596;9.238;2022-08-19T09:21:42;19.60;99.90
21823;DHT22;11074;48.596;9.238;2022-08-19T09:24:08;19.60;99.90
21823;DHT22;11074;48.596;9.238;2022-08-19T09:26:34;19.60;99.90
21823;DHT22;11074;48.596;9.238;2022-08-19T09:29:00;19.60;99.90
21823;DHT22;11074;48.596;9.238;2022-08-19T09:31:28;19.60;99.90
21823;DHT22;11074;48.596;9.238;2022-08-19T09:33:55;19.50;99.90
21823;DHT22;11074;48.596;9.238;2022-08-19T09:36:23;19.50;99.90
21823;DHT22;11074;48.596;9.238;2022-08-19T09:38:52;19.50;99.90
21823;DHT22;11074;48.596;9.238;2022-08-19T09:41:21;19.60;99.90
21823;DHT22;11074;48.596;9.238;2022-08-19T09:43:50;19.60;99.90
21823;DHT22;11074;48.596;9.238;2022-08-19T09:46:19;19.50;99.90
21823;DHT22;11074;48.596;9.238;2022-08-19T09:48:47;19.60;99.90
21823;DHT22;11074;48.596;9.238;2022-08-19T09:51:15;19.60;99.90
21823;DHT22;11074;48.596;9.238;2022-08-19T09:53:45;19.60;99.90
21823;DHT22;11074;48.596;9.238;2022-08-19T09:56:12;19.60;99.90
21823;DHT22;11074;48.596;9.238;2022-08-19T09:58:39;19.50;99.90
21823;DHT22;11074;48.596;9.238;2022-08-19T10:01:06;19.50;99.90
21823;DHT22;11074;48.596;9.238;2022-08-19T10:03:34;19.50;99.90
21823;DHT22;11074;48.596;9.238;2022-08-19T10:06:04;19.60;99.90
21823;DHT22;11074;48.596;9.238;2022-08-19T10:08:33;19.60;99.90
21823;DHT22;11074;48.596;9.238;2022-08-19T10:11:03;19.50;99.90
21823;DHT22;11074;48.596;9.238;2022-08-19T10:13:31;19.50;99.90
21823;DHT22;11074;48.596;9.238;2022-08-19T10:16:10;19.50;99.90
21823;DHT22;11074;48.596;9.238;2022-08-19T10:18:41;19.50;99.90
21823;DHT22;11074;48.596;9.238;2022-08-19T10:21:12;19.40;99.90
21823;DHT22;11074;48.596;9.238;2022-08-19T10:23:44;19.40;99.90
21823;DHT22;11074;48.596;9.238;2022-08-19T10:26:14;19.30;99.90
21823;DHT22;11074;48.596;9.238;2022-08-19T10:28:41;19.30;99.90
21823;DHT22;11074;48.596;9.238;2022-08-19T10:31:10;19.30;99.90
21823;DHT22;11074;48.596;9.238;2022-08-19T10:33:38;19.30;99.90
21823;DHT22;11074;48.596;9.238;2022-08-19T10:36:12;19.40;99.90
21823;DHT22;11074;48.596;9.238;2022-08-19T10:38:43;19.40;99.90
21823;DHT22;11074;48.596;9.238;2022-08-19T10:41:16;19.30;99.90
21823;DHT22;11074;48.596;9.238;2022-08-19T10:43:44;19.30;99.90
21823;DHT22;11074;48.596;9.238;2022-08-19T10:46:12;19.30;99.90
21823;DHT22;11074;48.596;9.238;2022-08-19T10:48:41;19.30;99.90
21823;DHT22;11074;48.596;9.238;2022-08-19T10:51:09;19.30;99.90
21823;DHT22;11074;48.596;9.238;2022-08-19T10:53:54;19.40;99.90
21823;DHT22;11074;48.596;9.238;2022-08-19T10:56:21;19.40;99.90
21823;DHT22;11074;48.596;9.238;2022-08-19T10:59:05;19.30;99.90
21823;DHT22;11074;48.596;9.238;2022-08-19T11:01:32;19.30;99.90
21823;DHT22;11074;48.596;9.238;2022-08-19T11:04:00;19.30;99.90
21823;DHT22;11074;48.596;9.238;2022-08-19T11:06:27;19.30;99.90
21823;DHT22;11074;48.596;9.238;2022-08-19T11:08:54;19.30;99.90
21823;DHT22;11074;48.596;9.238;2022-08-19T11:11:20;19.20;99.90
21823;DHT22;11074;48.596;9.238;2022-08-19T11:13:48;19.20;99.90
21823;DHT22;11074;48.596;9.238;2022-08-19T11:16:26;19.20;99.90
21823;DHT22;11074;48.596;9.238;2022-08-19T11:18:58;19.20;99.90
21823;DHT22;11074;48.596;9.238;2022-08-19T11:21:28;19.20;99.90
21823;DHT22;11074;48.596;9.238;2022-08-19T11:23:59;19.20;99.90
21823;DHT22;11074;48.596;9.238;2022-08-19T11:26:29;19.30;99.90
21823;DHT22;11074;48.596;9.238;2022-08-19T11:28:56;19.30;99.90
21823;DHT22;11074;48.596;9.238;2022-08-19T11:31:29;19.40;99.90
21823;DHT22;11074;48.596;9.238;2022-08-19T11:33:58;19.40;99.90
21823;DHT22;11074;48.596;9.238;2022-08-19T11:36:25;19.40;99.90
21823;DHT22;11074;48.596;9.238;2022-08-19T11:38:52;19.30;99.90
21823;DHT22;11074;48.596;9.238;2022-08-19T11:41:19;19.30;99.90
21823;DHT22;11074;48.596;9.238;2022-08-19T11:43:48;19.30;99.90
21823;DHT22;11074;48.596;9.238;2022-08-19T11:46:15;19.30;99.90
21823;DHT22;11074;48.596;9.238;2022-08-19T11:48:42;19.20;99.90
21823;DHT22;11074;48.596;9.238;2022-08-19T11:51:14;19.30;99.90
21823;DHT22;11074;48.596;9.238;2022-08-19T11:53:44;19.20;99.90
21823;DHT22;11074;48.596;9.238;2022-08-19T11:56:11;19.30;99.90
21823;DHT22;11074;48.596;9.238;2022-08-19T11:58:38;19.30;99.90
21823;DHT22;11074;48.596;9.238;2022-08-19T12:01:12;19.40;99.90
21823;DHT22;11074;48.596;9.238;2022-08-19T12:03:47;19.40;99.90
21823;DHT22;11074;48.596;9.238;2022-08-19T12:06:16;19.40;99.90
21823;DHT22;11074;48.596;9.238;2022-08-19T12:08:44;19.40;99.90
21823;DHT22;11074;48.596;9.238;2022-08-19T12:11:12;19.30;99.90
21823;DHT22;11074;48.596;9.238;2022-08-19T12:13:38;19.30;99.90
21823;DHT22;11074;48.596;9.238;2022-08-19T12:16:10;19.20;99.90
21823;DHT22;11074;48.596;9.238;2022-08-19T12:18:38;19.20;99.90
21823;DHT22;11074;48.596;9.238;2022-08-19T12:21:06;19.20;99.90
21823;DHT22;11074;48.596;9.238;2022-08-19T12:23:33;19.30;99.90
21823;DHT22;11074;48.596;9.238;2022-08-19T12:25:58;19.40;99.90
21823;DHT22;11074;48.596;9.238;2022-08-19T12:28:25;19.30;99.90
21823;DHT22;11074;48.596;9.238;2022-08-19T12:30:51;19.40;99.90
21823;DHT22;11074;48.596;9.238;2022-08-19T12:33:18;19.40;99.90
21823;DHT22;11074;48.596;9.238;2022-08-19T12:35:45;19.40;99.90
21823;DHT22;11074;48.596;9.238;2022-08-19T12:38:12;19.40;99.90
21823;DHT22;11074;48.596;9.238;2022-08-19T12:40:39;19.50;99.90
21823;DHT22;11074;48.596;9.238;2022-08-19T12:43:07;19.50;99.90
21823;DHT22;11074;48.596;9.238;2022-08-19T12:45:34;19.40;99.90
21823;DHT22;11074;48.596;9.238;2022-08-19T12:48:00;19.40;99.90
21823;DHT22;11074;48.596;9.238;2022-08-19T12:50:26;19.50;99.90
21823;DHT22;11074;48.596;9.238;2022-08-19T12:52:51;19.40;99.90
21823;DHT22;11074;48.596;9.238;2022-08-19T12:55:18;19.40;99.90
21823;DHT22;11074;48.596;9.238;2022-08-19T12:57:44;19.50;99.90
21823;DHT22;11074;48.596;9.238;2022-08-19T13:00:17;19.50;99.90
21823;DHT22;11074;48.596;9.238;2022-08-19T13:02:47;19.50;99.90
21823;DHT22;11074;48.596;9.238;2022-08-19T13:05:22;19.50;99.90
21823;DHT22;11074;48.596;9.238;2022-08-19T13:07:52;19.60;99.90
21823;DHT22;11074;48.596;9.238;2022-08-19T13:10:26;19.60;99.90
21823;DHT22;11074;48.596;9.238;2022-08-19T13:12:54;19.50;99.90
21823;DHT22;11074;48.596;9.238;2022-08-19T13:15:22;19.50;99.90
21823;DHT22;11074;48.596;9.238;2022-08-19T13:17:50;19.60;99.90
21823;DHT22;11074;48.596;9.238;2022-08-19T13:20:19;19.60;99.90
21823;DHT22;11074;48.596;9.238;2022-08-19T13:22:46;19.70;99.90
21823;DHT22;11074;48.596;9.238;2022-08-19T13:25:14;19.70;99.90
21823;DHT22;11074;48.596;9.238;2022-08-19T13:27:43;19.70;99.90
21823;DHT22;11074;48.596;9.238;2022-08-19T13:30:10;19.70;99.90
21823;DHT22;11074;48.596;9.238;2022-08-19T13:32:57;19.70;99.90
21823;DHT22;11074;48.596;9.238;2022-08-19T13:35:47;19.70;99.90
21823;DHT22;11074;48.596;9.238;2022-08-19T13:38:21;19.70;99.90
21823;DHT22;11074;48.596;9.238;2022-08-19T13:40:49;19.70;99.90
21823;DHT22;11074;48.596;9.238;2022-08-19T13:43:16;19.70;99.90
21823;DHT22;11074;48.596;9.238;2022-08-19T13:45:43;19.80;99.90
21823;DHT22;11074;48.596;9.238;2022-08-19T13:48:09;19.70;99.90
21823;DHT22;11074;48.596;9.238;2022-08-19T13:50:42;19.70;99.90
21823;DHT22;11074;48.596;9.238;2022-08-19T13:53:12;19.70;99.90
21823;DHT22;11074;48.596;9.238;2022-08-19T13:55:40;19.60;99.90
21823;DHT22;11074;48.596;9.238;2022-08-19T13:58:07;19.70;99.90
21823;DHT22;11074;48.596;9.238;2022-08-19T14:00:36;19.70;99.90
21823;DHT22;11074;48.596;9.238;2022-08-19T14:03:05;19.70;99.90
21823;DHT22;11074;48.596;9.238;2022-08-19T14:05:31;19.60;99.90
21823;DHT22;11074;48.596;9.238;2022-08-19T14:07:58;19.70;99.90
21823;DHT22;11074;48.596;9.238;2022-08-19T14:10:26;19.70;99.90
21823;DHT22;11074;48.596;9.238;2022-08-19T14:12:55;19.70;99.90
21823;DHT22;11074;48.596;9.238;2022-08-19T14:15:23;19.70;99.90
21823;DHT22;11074;48.596;9.238;2022-08-19T14:17:50;19.80;99.90
21823;DHT22;11074;48.596;9.238;2022-08-19T14:20:17;19.80;99.90
21823;DHT22;11074;48.596;9.238;2022-08-19T14:22:44;19.70;99.90
21823;DHT22;11074;48.596;9.238;2022-08-19T14:25:17;19.80;99.90
21823;DHT22;11074;48.596;9.238;2022-08-19T14:27:46;19.80;99.90
21823;DHT22;11074;48.596;9.238;2022-08-19T14:30:16;19.70;99.90
21823;DHT22;11074;48.596;9.238;2022-08-19T14:32:45;19.70;99.90
21823;DHT22;11074;48.596;9.238;2022-08-19T14:35:12;19.70;99.90
21823;DHT22;11074;48.596;9.238;2022-08-19T14:37:41;19.60;99.90
21823;DHT22;11074;48.596;9.238;2022-08-19T14:40:09;19.50;99.90
21823;DHT22;11074;48.596;9.238;2022-08-19T14:42:36;19.50;99.90
21823;DHT22;11074;48.596;9.238;2022-08-19T14:45:03;19.40;99.90
21823;DHT22;11074;48.596;9.238;2022-08-19T14:47:30;19.30;99.90
21823;DHT22;11074;48.596;9.238;2022-08-19T14:49:56;19.40;99.90
21823;DHT22;11074;48.596;9.238;2022-08-19T14:52:22;19.40;99.90
21823;DHT22;11074;48.596;9.238;2022-08-19T14:54:47;19.50;99.90
21823;DHT22;11074;48.596;9.238;2022-08-19T14:57:14;19.50;99.90
21823;DHT22;11074;48.596;9.238;2022-08-19T14:59:42;19.50;99.90
21823;DHT22;11074;48.596;9.238;2022-08-19T15:02:10;19.50;99.90
21823;DHT22;11074;48.596;9.238;2022-08-19T15:04:36;19.50;99.90
21823;DHT22;11074;48.596;9.238;2022-08-19T15:07:03;19.60;99.90
21823;DHT22;11074;48.596;9.238;2022-08-19T15:09:32;19.60;99.90
21823;DHT22;11074;48.596;9.238;2022-08-19T15:12:01;19.50;99.90
21823;DHT22;11074;48.596;9.238;2022-08-19T15:14:28;19.50;99.90
21823;DHT22;11074;48.596;9.238;2022-08-19T15:17:04;19.50;99.90
21823;DHT22;11074;48.596;9.238;2022-08-19T15:19:31;19.60;99.90
21823;DHT22;11074;48.596;9.238;2022-08-19T15:21:58;19.60;99.90
21823;DHT22;11074;48.596;9.238;2022-08-19T15:24:24;19.60;99.90
21823;DHT22;11074;48.596;9.238;2022-08-19T15:26:54;19.60;99.90
21823;DHT22;11074;48.596;9.238;2022-08-19T15:29:21;19.70;99.90
21823;DHT22;11074;48.596;9.238;2022-08-19T15:31:50;19.70;99.90
21823;DHT22;11074;48.596;9.238;2022-08-19T15:34:20;19.80;99.90
21823;DHT22;11074;48.596;9.238;2022-08-19T15:36:47;19.80;99.90
21823;DHT22;11074;48.596;9.238;2022-08-19T15:39:13;19.80;99.90
21823;DHT22;11074;48.596;9.238;2022-08-19T15:41:39;19.70;99.90
21823;DHT22;11074;48.596;9.238;2022-08-19T15:44:14;19.80;99.90
21823;DHT22;11074;48.596;9.238;2022-08-19T15:46:43;19.80;99.90
21823;DHT22;11074;48.596;9.238;2022-08-19T15:49:13;19.90;99.90
21823;DHT22;11074;48.596;9.238;2022-08-19T15:51:43;19.90;99.90